Time;durP1;ratioP1;P1;durP2;ratioP2;P2;SDS_P1;SDS_P2;PMS_P1;PMS_P2;Temp;Humidity;BMP_temperature;BMP_pressure;BME280_temperature;BME280_humidity;BME280_pressure;Samples;Min_cycle;Max_cycle;Signal;HPM_P1;HPM_P2
2022/07/20 00:00:43;;;;;;;;;;;;;;;23.13;51.02;100444.34;5036146;28;1609;-87
2022/07/20 00:03:09;;;;;;;;;;;;;;;22.83;52.95;100447.66;5040505;28;1376;-87
2022/07/20 00:05:34;;;;;;;;;;;;;;;22.62;52.54;100453.53;5047454;28;1965;-87
2022/07/20 00:08:00;;;;;;;;;;;;;;;22.60;52.59;100443.91;5053912;28;1415;-87
2022/07/20 00:13:10;;;;;;;;;;;;;;;22.45;53.36;100444.75;5044545;28;1460;-87
2022/07/20 00:15:35;;;;;;;;;;;;;;;22.27;53.53;100444.31;5036010;28;1711;-86
2022/07/20 00:18:00;;;;;;;;;;;;;;;22.18;53.22;100452.03;5036290;28;1214;-87
2022/07/20 00:20:25;;;;;;;;;;;;;;;22.28;54.07;100451.50;5035860;28;1355;-87
2022/07/20 00:22:51;;;;;;;;;;;;;;;21.95;53.72;100453.81;5034420;28;1801;-87
2022/07/20 00:25:16;;;;;;;;;;;;;;;22.11;54.61;100458.25;5035870;28;1965;-88
2022/07/20 00:27:41;;;;;;;;;;;;;;;21.83;54.98;100452.69;5035811;28;1451;-86
2022/07/20 00:30:06;;;;;;;;;;;;;;;21.89;54.87;100448.47;5035859;28;1182;-87
2022/07/20 00:32:38;;;;;;;;;;;;;;;21.76;54.77;100441.38;5035802;28;1306;-87
2022/07/20 00:35:10;;;;;;;;;;;;;;;21.72;54.63;100454.38;5047281;28;1248;-87
2022/07/20 00:37:36;;;;;;;;;;;;;;;21.99;54.60;100449.16;5044216;28;1424;-88
2022/07/20 00:40:02;;;;;;;;;;;;;;;22.23;53.14;100449.78;5036055;28;1188;-87
2022/07/20 00:42:27;;;;;;;;;;;;;;;22.02;53.55;100440.09;5035718;28;1286;-87
2022/07/20 00:44:52;;;;;;;;;;;;;;;22.09;54.52;100438.28;5035514;28;1894;-88
2022/07/20 00:47:18;;;;;;;;;;;;;;;21.91;54.04;100442.56;5036000;28;1330;-87
2022/07/20 00:49:43;;;;;;;;;;;;;;;21.90;55.25;100438.94;5035071;28;1570;-87
2022/07/20 00:52:08;;;;;;;;;;;;;;;21.61;55.80;100435.75;5035814;28;1307;-87
2022/07/20 00:54:34;;;;;;;;;;;;;;;21.41;55.86;100430.06;5035518;28;1315;-87
2022/07/20 00:56:59;;;;;;;;;;;;;;;21.51;56.63;100429.56;5035279;28;1541;-87
2022/07/20 00:59:25;;;;;;;;;;;;;;;21.24;56.68;100424.78;5035726;28;1570;-87
2022/07/20 01:01:50;;;;;;;;;;;;;;;21.38;55.85;100429.94;5046711;28;1306;-87
2022/07/20 01:04:15;;;;;;;;;;;;;;;21.51;55.73;100429.56;5050637;28;1300;-88
2022/07/20 01:06:40;;;;;;;;;;;;;;;21.57;55.39;100432.06;5035712;28;1969;-87
2022/07/20 01:09:05;;;;;;;;;;;;;;;21.37;55.58;100423.56;5053337;28;1791;-87
2022/07/20 01:11:32;;;;;;;;;;;;;;;20.99;56.51;100426.00;5035371;28;1277;-87
2022/07/20 01:14:06;;;;;;;;;;;;;;;20.85;56.80;100422.78;5052798;28;1621;-87
2022/07/20 01:16:32;;;;;;;;;;;;;;;20.74;57.32;100420.50;5035593;28;1548;-87
2022/07/20 01:18:58;;;;;;;;;;;;;;;21.07;55.78;100423.09;5043646;28;1536;-87
2022/07/20 01:21:23;;;;;;;;;;;;;;;20.97;56.67;100419.97;5035717;28;1446;-87
2022/07/20 01:23:48;;;;;;;;;;;;;;;21.17;56.34;100415.41;5035624;28;1172;-87
2022/07/20 01:26:17;;;;;;;;;;;;;;;21.23;56.12;100411.22;5034844;28;1972;-87
2022/07/20 01:28:43;;;;;;;;;;;;;;;21.35;55.25;100409.19;5028372;28;1220;-87
2022/07/20 01:31:08;;;;;;;;;;;;;;;21.21;54.91;100413.53;5052687;28;1634;-87
2022/07/20 01:33:33;;;;;;;;;;;;;;;21.22;55.42;100407.63;5053393;28;995;-88
2022/07/20 01:35:58;;;;;;;;;;;;;;;21.09;55.62;100411.59;5039403;28;1384;-87
2022/07/20 01:38:23;;;;;;;;;;;;;;;20.93;55.88;100408.72;5038851;28;1335;-87
2022/07/20 01:40:48;;;;;;;;;;;;;;;20.87;56.84;100415.72;5033100;28;1211;-87
2022/07/20 01:43:14;;;;;;;;;;;;;;;20.88;57.06;100416.53;5033458;28;1688;-88
2022/07/20 01:45:39;;;;;;;;;;;;;;;20.88;56.04;100416.53;5038314;28;1902;-88
2022/07/20 01:48:05;;;;;;;;;;;;;;;20.96;55.97;100421.13;5028496;28;1478;-87
2022/07/20 01:50:30;;;;;;;;;;;;;;;20.88;57.09;100416.53;5050871;28;1502;-87
2022/07/20 01:52:55;;;;;;;;;;;;;;;20.49;58.03;100413.34;5038577;28;1440;-87
2022/07/20 01:55:20;;;;;;;;;;;;;;;20.44;58.00;100419.13;5030026;28;1522;-87
2022/07/20 01:57:45;;;;;;;;;;;;;;;20.25;58.50;100416.09;5038770;28;1293;-87
2022/07/20 02:00:12;;;;;;;;;;;;;;;20.22;58.75;100417.63;5055004;28;1347;-86
2022/07/20 02:02:37;;;;;;;;;;;;;;;20.45;58.15;100422.72;5038558;28;1303;-87
2022/07/20 02:05:03;;;;;;;;;;;;;;;20.52;58.31;100432.09;5038173;28;1894;-87
2022/07/20 02:07:28;;;;;;;;;;;;;;;20.39;58.66;100427.72;5038490;28;1733;-87
2022/07/20 02:09:53;;;;;;;;;;;;;;;20.26;59.23;100426.88;5038237;28;1350;-87
2022/07/20 02:12:19;;;;;;;;;;;;;;;20.07;59.17;100425.84;5038480;28;1232;-86
2022/07/20 02:14:44;;;;;;;;;;;;;;;19.97;59.13;100439.00;5038445;28;1236;-87
2022/07/20 02:17:09;;;;;;;;;;;;;;;20.16;58.08;100437.66;5032835;28;1605;-87
2022/07/20 02:19:34;;;;;;;;;;;;;;;20.01;58.43;100445.50;5018754;28;838;-86
2022/07/20 02:21:59;;;;;;;;;;;;;;;20.20;57.90;100439.38;5052272;28;1363;-87
2022/07/20 02:24:25;;;;;;;;;;;;;;;20.11;58.69;100437.84;5037893;28;1305;-86
2022/07/20 02:26:50;;;;;;;;;;;;;;;19.85;58.50;100446.50;5038273;28;1949;-87
2022/07/20 02:29:15;;;;;;;;;;;;;;;19.97;58.92;100439.00;5037999;28;1669;-87
2022/07/20 02:31:40;;;;;;;;;;;;;;;19.33;61.28;100429.53;5055809;28;1447;-87
2022/07/20 02:34:05;;;;;;;;;;;;;;;19.59;61.02;100424.56;5055854;28;1198;-87
2022/07/20 02:36:30;;;;;;;;;;;;;;;19.43;60.80;100426.34;5036939;28;1189;-87
2022/07/20 02:38:55;;;;;;;;;;;;;;;19.24;61.94;100430.41;5038161;28;1431;-87
2022/07/20 02:41:21;;;;;;;;;;;;;;;19.39;61.18;100431.78;5038147;28;1381;-87
2022/07/20 02:43:46;;;;;;;;;;;;;;;19.39;61.32;100431.78;5055483;28;1302;-87
2022/07/20 02:46:11;;;;;;;;;;;;;;;19.52;60.72;100427.91;5037180;28;1906;-86
2022/07/20 02:48:36;;;;;;;;;;;;;;;19.56;60.63;100428.03;5037894;28;1819;-87
2022/07/20 02:51:01;;;;;;;;;;;;;;;19.53;60.94;100434.28;5037331;28;1358;-87
2022/07/20 02:53:26;;;;;;;;;;;;;;;19.67;60.35;100439.50;5037292;28;1419;-87
2022/07/20 02:55:52;;;;;;;;;;;;;;;19.55;59.95;100434.75;5037643;28;1652;-87
2022/07/20 02:58:17;;;;;;;;;;;;;;;19.34;60.31;100437.50;5037882;28;1342;-87
2022/07/20 03:00:42;;;;;;;;;;;;;;;19.39;59.42;100431.78;5026695;28;1656;-87
2022/07/20 03:03:08;;;;;;;;;;;;;;;19.52;59.82;100438.19;5053816;23;1780;-86
2022/07/20 03:05:33;;;;;;;;;;;;;;;19.64;59.41;100441.03;5015371;28;1914;-86
2022/07/20 03:07:59;;;;;;;;;;;;;;;19.68;58.96;100438.34;5030832;28;1217;-87
2022/07/20 03:10:24;;;;;;;;;;;;;;;19.60;59.84;100442.84;5008755;28;1713;-87
2022/07/20 03:12:49;;;;;;;;;;;;;;;19.45;60.05;100447.06;4994597;28;1239;-87
2022/07/20 03:15:14;;;;;;;;;;;;;;;19.34;60.85;100451.38;5000288;28;1393;-87
2022/07/20 03:17:47;;;;;;;;;;;;;;;19.41;60.66;100442.50;5026442;28;1491;-87
2022/07/20 03:20:13;;;;;;;;;;;;;;;19.46;59.59;100445.91;5003461;28;1333;-87
2022/07/20 03:22:39;;;;;;;;;;;;;;;19.35;60.32;100453.03;5015427;28;1295;-87
2022/07/20 03:25:04;;;;;;;;;;;;;;;19.37;60.72;100458.25;5013599;28;1959;-86
2022/07/20 03:27:29;;;;;;;;;;;;;;;19.07;62.08;100457.50;5030573;28;1442;-87
2022/07/20 03:29:54;;;;;;;;;;;;;;;19.18;60.86;100459.53;5030555;28;988;-87
2022/07/20 03:32:19;;;;;;;;;;;;;;;19.11;60.29;100462.03;5012873;28;1268;-87
2022/07/20 03:34:45;;;;;;;;;;;;;;;19.13;60.82;100470.84;5014682;28;1769;-86
2022/07/20 03:37:10;;;;;;;;;;;;;;;18.78;61.39;100464.72;5013593;28;1171;-86
2022/07/20 03:39:35;;;;;;;;;;;;;;;18.95;61.05;100468.53;5030400;28;964;-86
2022/07/20 03:42:00;;;;;;;;;;;;;;;19.05;60.89;100473.69;5013831;28;1805;-86
2022/07/20 03:44:25;;;;;;;;;;;;;;;19.00;61.03;100476.66;5015358;28;743;-85
2022/07/20 03:46:50;;;;;;;;;;;;;;;18.90;61.10;100469.53;5029685;28;1957;-86
2022/07/20 03:49:15;;;;;;;;;;;;;;;18.86;60.55;100472.19;5014878;28;1310;-85
2022/07/20 03:51:41;;;;;;;;;;;;;;;18.92;61.84;100475.56;5030826;28;2004;-85
2022/07/20 03:54:07;;;;;;;;;;;;;;;18.73;61.95;100477.97;5014651;28;1098;-85
2022/07/20 03:56:32;;;;;;;;;;;;;;;18.64;61.14;100472.47;5015360;28;1380;-86
2022/07/20 03:58:57;;;;;;;;;;;;;;;18.27;63.31;100479.66;5031169;28;1763;-86
2022/07/20 04:01:22;;;;;;;;;;;;;;;18.25;64.11;100493.00;5015464;28;1443;-85
2022/07/20 04:03:47;;;;;;;;;;;;;;;18.35;63.32;100483.53;5015457;28;1733;-86
2022/07/20 04:06:13;;;;;;;;;;;;;;;18.56;62.71;100487.16;5015835;28;1890;-86
2022/07/20 04:08:38;;;;;;;;;;;;;;;18.53;62.95;100485.88;5030904;28;1804;-86
2022/07/20 04:11:03;;;;;;;;;;;;;;;18.20;63.94;100489.63;5030898;28;1409;-86
2022/07/20 04:13:28;;;;;;;;;;;;;;;18.49;62.36;100484.09;5031215;28;1725;-84
2022/07/20 04:15:53;;;;;;;;;;;;;;;18.61;62.90;100486.19;5011941;28;1380;-86
2022/07/20 04:18:18;;;;;;;;;;;;;;;18.65;61.53;100481.59;5022155;28;1067;-87
2022/07/20 04:20:44;;;;;;;;;;;;;;;18.74;61.44;100483.19;5014121;28;1601;-86
2022/07/20 04:23:11;;;;;;;;;;;;;;;18.76;61.55;100480.06;5011229;28;1620;-86
2022/07/20 04:25:36;;;;;;;;;;;;;;;18.88;62.25;100494.03;5011079;28;1894;-87
2022/07/20 04:28:01;;;;;;;;;;;;;;;18.92;62.48;100489.44;5012848;28;1494;-85
2022/07/20 04:30:28;;;;;;;;;;;;;;;18.81;62.73;100490.97;5014284;28;786;-84
2022/07/20 04:32:53;;;;;;;;;;;;;;;18.68;63.28;100486.47;5028880;28;1648;-86
2022/07/20 04:35:19;;;;;;;;;;;;;;;18.70;65.01;100489.75;5011281;28;1482;-86
2022/07/20 04:37:44;;;;;;;;;;;;;;;18.60;64.58;100499.25;5014117;28;1701;-87
2022/07/20 04:40:09;;;;;;;;;;;;;;;18.47;64.72;100495.50;5014053;28;826;-86
2022/07/20 04:42:35;;;;;;;;;;;;;;;18.49;63.77;100500.72;5028810;28;1708;-86
2022/07/20 04:45:00;;;;;;;;;;;;;;;18.62;63.13;100493.38;5008141;28;1965;-89
2022/07/20 04:47:25;;;;;;;;;;;;;;;18.68;62.70;100497.56;5011449;28;1502;-87
2022/07/20 04:49:50;;;;;;;;;;;;;;;18.69;62.72;100494.47;5028852;28;1732;-88
2022/07/20 04:52:15;;;;;;;;;;;;;;;18.39;65.04;100504.69;5029017;28;1278;-87
2022/07/20 04:54:41;;;;;;;;;;;;;;;18.62;63.36;100498.91;5028394;28;1562;-87
2022/07/20 04:57:06;;;;;;;;;;;;;;;18.53;64.43;100496.97;5006327;28;1456;-87
2022/07/20 04:59:32;;;;;;;;;;;;;;;18.88;62.84;100500.38;4992942;28;1615;-87
2022/07/20 05:01:57;;;;;;;;;;;;;;;18.62;65.34;100504.47;4999761;28;1375;-87
2022/07/20 05:04:22;;;;;;;;;;;;;;;18.65;65.63;100498.22;5011910;28;1747;-87
2022/07/20 05:06:47;;;;;;;;;;;;;;;18.71;64.97;100492.19;5012216;28;1906;-87
2022/07/20 05:09:12;;;;;;;;;;;;;;;18.99;64.93;100491.66;5028434;28;827;-87
2022/07/20 05:11:38;;;;;;;;;;;;;;;18.95;66.10;100487.94;5012568;28;1205;-87
2022/07/20 05:14:03;;;;;;;;;;;;;;;18.89;66.58;100495.63;5011753;28;1483;-87
2022/07/20 05:16:28;;;;;;;;;;;;;;;18.83;65.84;100489.47;5012322;28;1217;-88
2022/07/20 05:18:54;;;;;;;;;;;;;;;18.86;66.41;100499.09;5000505;28;1439;-87
2022/07/20 05:21:19;;;;;;;;;;;;;;;19.03;66.16;100490.66;5028584;28;1393;-87
2022/07/20 05:23:44;;;;;;;;;;;;;;;19.09;67.06;100492.09;5009485;28;1737;-87
2022/07/20 05:26:09;;;;;;;;;;;;;;;19.11;66.65;100494.53;5017357;28;1956;-87
2022/07/20 05:28:35;;;;;;;;;;;;;;;19.25;65.93;100500.59;5012286;28;1229;-87
2022/07/20 05:31:00;;;;;;;;;;;;;;;19.42;65.98;100496.88;5011917;28;1824;-87
2022/07/20 05:33:25;;;;;;;;;;;;;;;19.38;66.82;100498.72;5024041;28;1467;-88
2022/07/20 05:35:51;;;;;;;;;;;;;;;19.43;68.77;100501.28;5007641;28;1777;-87
2022/07/20 05:38:17;;;;;;;;;;;;;;;19.36;69.58;100489.91;5011098;28;1239;-88
2022/07/20 05:40:42;;;;;;;;;;;;;;;19.39;69.08;100494.81;4996316;28;1635;-88
2022/07/20 05:43:07;;;;;;;;;;;;;;;19.39;68.69;100497.56;5027688;28;1456;-87
2022/07/20 05:45:33;;;;;;;;;;;;;;;19.46;68.99;100489.50;5011783;28;1890;-87
2022/07/20 05:47:58;;;;;;;;;;;;;;;19.59;68.55;100488.44;5013109;28;790;-87
2022/07/20 05:50:23;;;;;;;;;;;;;;;19.75;68.44;100492.19;4999527;28;1761;-88
2022/07/20 05:52:48;;;;;;;;;;;;;;;19.90;69.85;100486.00;4994093;28;1488;-88
2022/07/20 05:55:13;;;;;;;;;;;;;;;19.93;69.21;100488.06;5012601;28;1423;-88
2022/07/20 05:57:39;;;;;;;;;;;;;;;19.97;68.68;100494.59;5011530;28;1764;-88
2022/07/20 06:00:04;;;;;;;;;;;;;;;20.03;68.95;100498.75;5015722;28;1454;-88
2022/07/20 06:02:29;;;;;;;;;;;;;;;20.07;69.10;100493.34;5012458;28;1769;-87
2022/07/20 06:04:54;;;;;;;;;;;;;;;20.16;68.81;100496.00;5010539;28;1511;-88
2022/07/20 06:07:20;;;;;;;;;;;;;;;20.23;69.07;100493.47;5011468;28;1906;-88
2022/07/20 06:09:45;;;;;;;;;;;;;;;20.28;67.14;100496.00;5011778;28;1787;-88
2022/07/20 06:12:10;;;;;;;;;;;;;;;20.36;66.85;100489.56;5028183;28;1304;-87
2022/07/20 06:14:35;;;;;;;;;;;;;;;20.41;65.28;100492.13;5012054;28;1828;-86
2022/07/20 06:17:00;;;;;;;;;;;;;;;20.45;64.57;100492.22;5011661;28;1090;-87
2022/07/20 06:19:25;;;;;;;;;;;;;;;20.49;63.42;100496.78;5012012;28;1773;-88
2022/07/20 06:21:51;;;;;;;;;;;;;;;20.53;64.30;100494.91;5013549;28;1824;-88
2022/07/20 06:24:16;;;;;;;;;;;;;;;20.59;63.98;100498.25;5015752;28;1456;-88
2022/07/20 06:26:41;;;;;;;;;;;;;;;20.63;63.33;100502.78;5015426;28;1962;-88
2022/07/20 06:29:06;;;;;;;;;;;;;;;20.69;63.76;100493.03;4995620;28;1096;-88
2022/07/20 06:31:31;;;;;;;;;;;;;;;20.74;63.03;100487.25;4995302;28;1314;-87
2022/07/20 06:33:56;;;;;;;;;;;;;;;20.79;63.13;100491.75;5000738;28;1444;-88
2022/07/20 06:36:21;;;;;;;;;;;;;;;20.84;64.09;100493.50;5014376;28;1816;-88
2022/07/20 06:38:47;;;;;;;;;;;;;;;20.89;63.00;100496.88;5014834;28;1681;-88
2022/07/20 06:41:12;;;;;;;;;;;;;;;20.92;62.89;100500.94;5015957;28;1012;-88
2022/07/20 06:43:37;;;;;;;;;;;;;;;20.97;62.86;100503.47;5027015;28;1718;-88
2022/07/20 06:46:02;;;;;;;;;;;;;;;21.02;63.87;100506.00;5010785;28;1951;-88
2022/07/20 06:48:27;;;;;;;;;;;;;;;21.06;64.70;100498.56;5014273;28;1365;-87
2022/07/20 06:50:52;;;;;;;;;;;;;;;21.11;64.43;100499.13;5031323;28;1382;-87
2022/07/20 06:53:18;;;;;;;;;;;;;;;21.15;63.69;100488.13;5014266;28;1213;-88
2022/07/20 06:55:43;;;;;;;;;;;;;;;21.21;64.20;100495.09;5014717;28;1282;-88
2022/07/20 06:58:08;;;;;;;;;;;;;;;21.28;63.17;100492.50;5003148;28;1410;-87
2022/07/20 07:00:34;;;;;;;;;;;;;;;21.35;63.65;100489.94;5028330;28;1341;-88
2022/07/20 07:02:59;;;;;;;;;;;;;;;21.41;63.37;100493.28;5013769;28;1467;-87
2022/07/20 07:05:24;;;;;;;;;;;;;;;21.46;63.31;100493.84;5013993;28;2383;-88
2022/07/20 07:07:49;;;;;;;;;;;;;;;21.52;63.59;100489.63;5013879;28;1636;-88
2022/07/20 07:10:14;;;;;;;;;;;;;;;21.59;63.66;100491.03;5020382;28;1123;-89
2022/07/20 07:12:39;;;;;;;;;;;;;;;21.65;63.71;100489.59;5013199;28;1293;-89
2022/07/20 07:15:05;;;;;;;;;;;;;;;21.69;64.54;100485.72;5029967;28;1741;-87
2022/07/20 07:17:30;;;;;;;;;;;;;;;21.76;64.00;100487.94;5029919;28;1319;-89
2022/07/20 07:19:56;;;;;;;;;;;;;;;21.89;63.04;100481.09;5030204;28;1419;-90
2022/07/20 07:22:21;;;;;;;;;;;;;;;21.92;62.54;100480.41;5014358;28;1301;-88
2022/07/20 07:24:46;;;;;;;;;;;;;;;21.99;62.10;100485.38;5020385;28;1709;-90
2022/07/20 07:27:11;;;;;;;;;;;;;;;22.06;61.16;100478.00;5038745;28;1875;-88
2022/07/20 07:29:37;;;;;;;;;;;;;;;22.14;61.91;100474.25;5019420;28;1232;-90
2022/07/20 07:32:02;;;;;;;;;;;;;;;22.21;59.46;100477.22;5016921;28;1396;-90
2022/07/20 07:34:28;;;;;;;;;;;;;;;22.28;59.23;100473.81;5021370;28;1781;-88
2022/07/20 07:36:53;;;;;;;;;;;;;;;22.40;58.16;100482.06;5014149;28;1331;-91
2022/07/20 07:39:18;;;;;;;;;;;;;;;22.52;58.03;100468.03;5021287;28;1610;-91
2022/07/20 07:41:43;;;;;;;;;;;;;;;22.60;59.40;100469.03;5032399;28;1193;-91
2022/07/20 07:44:09;;;;;;;;;;;;;;;22.70;58.43;100476.03;5030594;28;1745;-91
2022/07/20 07:46:34;;;;;;;;;;;;;;;22.81;57.42;100472.31;5031729;28;1886;-91
2022/07/20 07:48:59;;;;;;;;;;;;;;;22.91;57.59;100471.75;5034104;28;1433;-92
2022/07/20 07:51:24;;;;;;;;;;;;;;;23.00;56.62;100472.38;5016336;28;1268;-91
2022/07/20 07:53:49;;;;;;;;;;;;;;;23.20;55.50;100475.19;5030078;28;1672;-90
2022/07/20 07:56:15;;;;;;;;;;;;;;;23.30;54.45;100469.03;5009984;28;1182;-90
2022/07/20 07:58:40;;;;;;;;;;;;;;;23.46;53.66;100472.56;5017481;28;1366;-89
2022/07/20 08:01:05;;;;;;;;;;;;;;;23.48;52.38;100480.59;5018720;28;1669;-91
2022/07/20 08:03:30;;;;;;;;;;;;;;;23.60;51.95;100477.66;5008610;28;1509;-89
2022/07/20 08:05:55;;;;;;;;;;;;;;;23.53;52.60;100469.94;5031035;28;1951;-92
2022/07/20 08:08:20;;;;;;;;;;;;;;;23.77;51.98;100466.00;5021019;28;1438;-91
2022/07/20 08:10:46;;;;;;;;;;;;;;;23.77;52.24;100463.22;5020979;28;1550;-91
2022/07/20 08:13:12;;;;;;;;;;;;;;;23.77;52.45;100466.81;5019367;28;1701;-91
2022/07/20 08:15:37;;;;;;;;;;;;;;;23.80;52.73;100470.88;5017890;28;1444;-91
2022/07/20 08:18:03;;;;;;;;;;;;;;;24.00;50.78;100466.03;5015672;28;1491;-90
2022/07/20 08:20:28;;;;;;;;;;;;;;;24.11;50.58;100469.84;5027618;28;1771;-91
2022/07/20 08:22:53;;;;;;;;;;;;;;;24.11;50.59;100458.66;5016284;28;1534;-89
2022/07/20 08:25:19;;;;;;;;;;;;;;;24.15;51.12;100453.94;5037719;28;1894;-89
2022/07/20 08:27:44;;;;;;;;;;;;;;;24.29;52.00;100448.59;5034556;28;1258;-91
2022/07/20 08:30:10;;;;;;;;;;;;;;;24.24;51.34;100456.53;5014855;28;1187;-90
2022/07/20 08:32:35;;;;;;;;;;;;;;;24.27;52.00;100445.38;5018746;28;1384;-91
2022/07/20 08:35:00;;;;;;;;;;;;;;;24.37;50.82;100446.72;5035976;28;1585;-92
2022/07/20 08:37:26;;;;;;;;;;;;;;;24.39;51.28;100450.78;5018844;28;1223;-90
2022/07/20 08:39:52;;;;;;;;;;;;;;;24.43;51.34;100457.22;5035899;28;1593;-91
2022/07/20 08:42:17;;;;;;;;;;;;;;;24.49;52.50;100452.94;5053034;28;1347;-91
2022/07/20 08:44:43;;;;;;;;;;;;;;;24.62;52.33;100450.72;5023712;28;1823;-91
2022/07/20 08:47:11;;;;;;;;;;;;;;;24.81;51.99;100455.41;5028789;28;1949;-91
2022/07/20 08:49:44;;;;;;;;;;;;;;;24.73;51.62;100451.72;5018699;28;1749;-91
2022/07/20 08:52:09;;;;;;;;;;;;;;;24.78;50.69;100447.75;5013772;28;1343;-92
2022/07/20 08:54:35;;;;;;;;;;;;;;;24.88;50.29;100452.72;5034598;28;1704;-93
2022/07/20 08:57:06;;;;;;;;;;;;;;;24.80;50.83;100443.41;5028246;28;1660;-90
2022/07/20 08:59:31;;;;;;;;;;;;;;;24.86;51.27;100449.47;5010462;28;1757;-91
2022/07/20 09:01:58;;;;;;;;;;;;;;;24.93;51.26;100448.81;5015146;28;1567;-92
2022/07/20 09:04:23;;;;;;;;;;;;;;;24.97;50.70;100444.88;5012668;28;1460;-91
2022/07/20 09:06:49;;;;;;;;;;;;;;;25.07;50.61;100444.22;5014697;28;1894;-91
2022/07/20 09:09:14;;;;;;;;;;;;;;;25.14;49.79;100441.50;5031848;28;1286;-92
2022/07/20 09:11:40;;;;;;;;;;;;;;;25.20;49.81;100442.78;5025112;28;1505;-90
2022/07/20 09:14:05;;;;;;;;;;;;;;;25.18;49.34;100439.53;5014088;28;1110;-91
2022/07/20 09:16:32;;;;;;;;;;;;;;;25.23;49.59;100450.44;5012611;28;1673;-91
2022/07/20 09:18:57;;;;;;;;;;;;;;;25.29;48.27;100438.88;5029726;28;1689;-93
2022/07/20 09:21:29;;;;;;;;;;;;;;;25.21;48.74;100440.78;5034250;28;1645;-93
2022/07/20 09:23:56;;;;;;;;;;;;;;;25.27;49.75;100442.06;5018118;28;1355;-92
2022/07/20 09:26:22;;;;;;;;;;;;;;;25.38;48.84;100429.00;5028175;28;1898;-92
2022/07/20 09:28:51;;;;;;;;;;;;;;;25.41;49.08;100441.44;5012489;28;1552;-92
2022/07/20 09:31:21;;;;;;;;;;;;;;;25.57;48.70;100442.84;5010758;28;1319;-91
2022/07/20 09:33:50;;;;;;;;;;;;;;;25.57;48.72;100437.22;5013505;28;1504;-93
2022/07/20 09:36:17;;;;;;;;;;;;;;;25.60;49.57;100438.50;5000062;28;1420;-92
2022/07/20 09:38:42;;;;;;;;;;;;;;;25.65;48.67;100438.16;5001164;28;1349;-92
2022/07/20 09:41:40;;;;;;;;;;;;;;;25.74;48.45;100437.84;5014162;28;1068;-92
2022/07/20 09:44:06;;;;;;;;;;;;;;;25.87;49.06;100439.97;5006682;28;1617;-91
2022/07/20 09:46:32;;;;;;;;;;;;;;;25.87;47.58;100434.38;5027758;28;1901;-91
2022/07/20 09:48:59;;;;;;;;;;;;;;;26.02;47.57;100431.72;4997265;28;700;-92
2022/07/20 09:51:25;;;;;;;;;;;;;;;26.10;47.29;100437.00;5031169;28;1667;-92
2022/07/20 09:53:59;;;;;;;;;;;;;;;26.08;47.14;100439.38;5034604;28;1348;-92
2022/07/20 09:56:25;;;;;;;;;;;;;;;26.16;46.08;100437.44;5039756;28;1255;-93
2022/07/20 09:58:51;;;;;;;;;;;;;;;26.15;45.92;100435.81;5028211;28;1439;-93
2022/07/20 10:01:21;;;;;;;;;;;;;;;26.28;46.30;100434.38;5016511;28;1614;-91
2022/07/20 10:03:47;;;;;;;;;;;;;;;26.32;46.32;100429.59;5031866;28;1371;-91
2022/07/20 10:06:13;;;;;;;;;;;;;;;26.40;45.09;100425.66;5006134;28;1890;-91
2022/07/20 10:08:38;;;;;;;;;;;;;;;26.40;44.92;100422.03;5010312;28;1310;-93
2022/07/20 10:11:04;;;;;;;;;;;;;;;26.47;45.86;100422.88;5017069;28;1607;-91
2022/07/20 10:13:30;;;;;;;;;;;;;;;26.71;42.74;100421.47;5015814;28;1369;-91
2022/07/20 10:16:03;;;;;;;;;;;;;;;26.71;45.28;100424.28;5011035;28;1613;-91
2022/07/20 10:18:29;;;;;;;;;;;;;;;26.60;46.11;100424.19;5015489;28;1323;-91
2022/07/20 10:20:54;;;;;;;;;;;;;;;26.66;44.98;100428.25;5032449;28;1409;-91
2022/07/20 10:23:22;;;;;;;;;;;;;;;26.66;44.34;100416.19;5031685;28;1760;-91
2022/07/20 10:25:47;;;;;;;;;;;;;;;26.72;44.74;100412.63;5018736;28;1874;-91
2022/07/20 10:28:30;;;;;;;;;;;;;;;26.87;44.30;100409.91;5016535;28;1377;-92
2022/07/20 10:30:57;;;;;;;;;;;;;;;26.92;44.40;100409.56;5033710;28;1850;-92
2022/07/20 10:33:23;;;;;;;;;;;;;;;26.98;44.55;100402.38;5016047;28;1571;-91
2022/07/20 10:35:49;;;;;;;;;;;;;;;27.06;43.90;100413.25;5015798;28;1626;-92
2022/07/20 10:38:18;;;;;;;;;;;;;;;27.06;44.43;100407.63;5020990;28;1439;-90
2022/07/20 10:44:05;;;;;;;;;;;;;;;27.38;43.32;100395.72;5019782;28;1248;-93
2022/07/20 10:46:32;;;;;;;;;;;;;;;27.35;43.10;100390.88;5024280;28;1955;-90
2022/07/20 10:48:57;;;;;;;;;;;;;;;27.47;42.19;100391.34;5018067;28;1177;-91
2022/07/20 10:51:22;;;;;;;;;;;;;;;27.56;43.22;100387.38;5016678;28;1378;-92
2022/07/20 10:53:47;;;;;;;;;;;;;;;27.50;44.20;100384.91;5036996;28;1887;-93
2022/07/20 10:56:12;;;;;;;;;;;;;;;27.54;42.65;100381.34;5018335;28;1388;-90
2022/07/20 10:58:40;;;;;;;;;;;;;;;27.71;41.86;100380.56;5020039;28;1400;-93
2022/07/20 11:01:07;;;;;;;;;;;;;;;27.74;41.87;100386.16;5037877;28;1404;-93
2022/07/20 11:03:45;;;;;;;;;;;;;;;27.83;43.58;100382.97;5040337;28;1489;-93
2022/07/20 11:06:15;;;;;;;;;;;;;;;27.75;41.89;100382.16;5027298;28;1878;-93
2022/07/20 11:08:49;;;;;;;;;;;;;;;27.81;42.88;100379.78;5032353;28;1415;-93
2022/07/20 11:11:16;;;;;;;;;;;;;;;27.86;40.48;100382.19;5030833;28;1333;-93
2022/07/20 11:13:41;;;;;;;;;;;;;;;27.86;40.72;100374.53;5028928;28;1287;-91
2022/07/20 11:16:06;;;;;;;;;;;;;;;27.93;41.32;100370.13;5023221;28;1316;-94
2022/07/20 11:18:32;;;;;;;;;;;;;;;28.08;41.54;100371.72;5027743;28;1278;-93
2022/07/20 11:21:02;;;;;;;;;;;;;;;28.19;42.18;100372.56;5036204;28;1458;-93
2022/07/20 11:23:37;;;;;;;;;;;;;;;28.17;41.23;100366.53;5042315;28;1569;-91
2022/07/20 11:26:02;;;;;;;;;;;;;;;28.22;39.82;100366.94;5044525;28;1898;-90
2022/07/20 11:28:31;;;;;;;;;;;;;;;28.20;39.29;100363.72;5027785;28;1625;-91
2022/07/20 11:30:56;;;;;;;;;;;;;;;28.23;38.96;100357.28;5035740;28;1302;-93
2022/07/20 11:33:25;;;;;;;;;;;;;;;28.27;39.63;100353.66;5040407;28;1362;-92
2022/07/20 11:35:50;;;;;;;;;;;;;;;28.35;40.11;100344.78;5024722;28;1469;-90
2022/07/20 11:38:16;;;;;;;;;;;;;;;28.32;38.47;100347.63;5043196;28;1612;-92
2022/07/20 11:40:41;;;;;;;;;;;;;;;28.36;38.86;100340.78;5024388;28;1658;-91
2022/07/20 11:43:07;;;;;;;;;;;;;;;28.46;38.38;100341.97;5014975;28;1333;-91
2022/07/20 11:45:33;;;;;;;;;;;;;;;28.43;38.66;100337.94;5016308;28;1902;-92
2022/07/20 11:47:58;;;;;;;;;;;;;;;28.51;38.84;100341.53;5031509;28;1354;-90
2022/07/20 11:50:30;;;;;;;;;;;;;;;28.58;39.82;100335.91;5016260;28;1196;-93
2022/07/20 11:52:55;;;;;;;;;;;;;;;28.65;39.98;100332.25;5033962;28;1291;-92
2022/07/20 11:55:31;;;;;;;;;;;;;;;28.71;38.77;100322.19;5034379;28;1395;-91
2022/07/20 11:57:57;;;;;;;;;;;;;;;28.67;39.11;100324.22;5013614;28;1576;-92
2022/07/20 12:00:25;;;;;;;;;;;;;;;28.64;39.53;100325.03;5032310;28;1277;-91
2022/07/20 12:02:50;;;;;;;;;;;;;;;28.82;36.90;100332.22;5030304;28;1355;-91
2022/07/20 12:05:15;;;;;;;;;;;;;;;28.83;36.38;100314.13;5006103;28;1962;-92
2022/07/20 12:10:25;;;;;;;;;;;;;;;29.07;35.13;100315.22;5016923;28;1135;-90
2022/07/20 12:13:10;;;;;;;;;;;;;;;29.20;34.78;100307.88;5014268;28;1722;-92
2022/07/20 12:15:36;;;;;;;;;;;;;;;29.20;34.95;100301.44;5008135;28;1453;-92
2022/07/20 12:18:01;;;;;;;;;;;;;;;29.27;35.71;100309.84;5024224;28;1219;-91
2022/07/20 12:20:26;;;;;;;;;;;;;;;29.53;33.88;100300.84;5016850;28;1240;-91
2022/07/20 12:22:53;;;;;;;;;;;;;;;29.47;35.38;100305.31;5016575;28;1358;-91
2022/07/20 12:25:18;;;;;;;;;;;;;;;29.38;36.09;100304.19;5032266;28;1902;-92
2022/07/20 12:27:44;;;;;;;;;;;;;;;29.72;34.38;100305.13;5031041;28;1793;-91
2022/07/20 12:30:27;;;;;;;;;;;;;;;29.59;34.56;100304.84;5015344;28;1414;-91
2022/07/20 12:33:08;;;;;;;;;;;;;;;29.60;36.50;100297.97;5016034;28;1381;-92
2022/07/20 12:35:34;;;;;;;;;;;;;;;29.61;35.18;100308.03;5008535;28;1071;-91
2022/07/20 12:38:00;;;;;;;;;;;;;;;29.69;35.61;100306.75;5015027;28;1288;-91
2022/07/20 12:40:38;;;;;;;;;;;;;;;29.77;34.38;100293.41;5030814;28;1248;-91
2022/07/20 12:43:23;;;;;;;;;;;;;;;29.73;34.93;100296.25;5029930;28;1372;-91
2022/07/20 12:45:48;;;;;;;;;;;;;;;29.72;36.86;100289.00;5029783;28;1898;-91
2022/07/20 12:48:14;;;;;;;;;;;;;;;29.79;35.19;100287.34;5027563;28;1637;-91
2022/07/20 12:50:39;;;;;;;;;;;;;;;30.04;33.76;100288.75;5016093;28;988;-91